Results by/Résultats par Info:[email protected] Phone: (613)260-0994

                                    K-TOWN TRIATHLON

                                Sunday August 4th, 2002

                         Confederation Park, Kingston, Ontario

                        Overall Results - Short Course Triathlon

  -----FINAL----- ----------------------- ------------ -------------------- ----            750m                        30 km                   7.2 km
                                                       Category                     ------SWIM + T1-------    ----------BIKE--------    -------RUN + T2-------
    Pos     Time  Name                    City         Plc/Total Category     #      Cat  Ovr  Time  /100m     Cat Ovr Time  km/hr      Cat  Ovr  Time     km
  ------  ------- ----------------------- ------------ -------------------- ----    ----------------------    ----------------------    ----------------------
    1     1:24:19 Sean Bechtel            Caleden Vill   1/1   Elite Men     590    1      1   10:51  1:27    1      1   46:52  38.4     1      1   26:37  3:42 
    2     1:31:08 Brock Davis             Brockville     1/30  M30 - 34      344    1     10   13:37  1:49    1      5   49:06  36.7     1      2   28:25  3:57 
    3     1:31:42 Carl Weber              Kingston       1/27  M35 - 39      373    3     18   14:33  1:57    2      3   48:22  37.2     1      4   28:47  4:00 
    4     1:33:11 Brad Hilton             Windsor        1/20  M25 - 29      589    1     20   14:50  1:59    1      4   48:34  37.1     1      8   29:48  4:09 
    5     1:33:56 George Tolkachev        Ottawa         2/27  M35 - 39      491    1      7   12:53  1:44    4     15   51:18  35.1     3      7   29:45  4:08 
    6     1:34:25 Luis Madrigal           London         2/30  M30 - 34      420    2     17   14:29  1:56    2     11   51:08  35.2     2      5   28:48  4:00 
    7     1:34:58 Rachel Joyce            Kingston       1/2   Elite Women   524    1      4   12:06  1:37    2     45   54:16  33.2     1      3   28:37  3:59 
    8     1:35:05 Ron Webb                Ottawa         1/14  M45 - 49      489    2     32   15:41  2:06    1      7   49:30  36.4     1      9   29:56  4:10 
    9     1:35:21 Todd Hughson            Toronto        3/27  M35 - 39      383    2     14   14:11  1:54    5     17   51:42  34.8     2      6   29:30  4:06 
   10     1:35:38 Rodrigo Diaz            Guadalajara    1/19  M20 - 24      553    1      2   11:42  1:34    2     23   52:34  34.3     2     21   31:23  4:22 
   11     1:35:56 Roger Carroll           Ottawa         1/31  M40 - 44      557    2     23   15:08  2:01    2      8   50:09  35.9     1     13   30:41  4:16 
   12     1:36:21 Jeff Lowthian           Stittsville    4/27  M35 - 39      499    5     35   15:52  2:07    1      2   47:36  37.8     8     37   32:54  4:35 
   13     1:36:47 Natasha Elliott         Belleville     1/22  W20 - 24      347    3     22   15:04  2:01    1      9   50:29  35.7     1     18   31:14  4:21 
   14     1:37:00 Erin Hawes              Ottawa         2/2   Elite Women   593    2      5   12:19  1:39    1     37   53:45  33.5     2     15   30:57  4:18 
   15     1:37:59 Gerry Lashley           Toronto        3/30  M30 - 34      484    5     36   15:53  2:07    3     18   52:00  34.6     3     11   30:07  4:11 
   16     1:38:10 Caroline Amyot          Perth          2/22  W20 - 24      531    1      8   13:34  1:49    2     29   53:05  33.9     2     23   31:33  4:23 
   17     1:38:48 Bill Bowman             Orillia        1/5   Junior Men    558    2     30   15:33  2:05    2     26   52:46  34.1     1     12   30:30  4:15 
   18 CLY 1:38:54 Robert Laderoute        Carp           2/31  M40 - 44      537    1     16   14:12  1:54    1      6   49:13  36.6     9     77   35:30  4:56 
   19     1:38:54 Philip Troop            Kingston       2/5   Junior Men    472    3     55   16:58  2:16    1     13   51:11  35.2     2     14   30:45  4:17 
   20 CLY 1:40:37 Damon Dagnone           Kingston       2/20  M25 - 29      482    2     25   15:17  2:03    3     28   53:04  33.9     2     27   32:17  4:30 
   21     1:41:04 Grant Thompson          Orleans        3/31  M40 - 44      430    3     37   15:59  2:08    4     20   52:29  34.3     3     31   32:37  4:32 
   22     1:41:29 Dave Spielvogel         Toronto        2/14  M45 - 49      532    9    112   19:06  2:33    2     10   51:08  35.2     3     20   31:16  4:21 
   23     1:41:41 Aaron Campbell          Kingston       4/30  M30 - 34      569    10    64   17:28  2:20    4     24   52:41  34.2     5     22   31:32  4:23 
   24     1:41:44 Saskia Harvey           Kingston       1/26  W25 - 29      326    2     31   15:40  2:06    1     25   52:43  34.2     3     43   33:23  4:39 
   25     1:42:17 Erin Down               Ottawa         2/26  W25 - 29      521    3     33   15:42  2:06    2     42   54:06  33.3     1     29   32:30  4:31 
   26 CLY 1:42:30 Paul Francis            Kingston       2/19  M20 - 24      486    5     60   17:12  2:18    1     16   51:40  34.8     4     45   33:39  4:41 
   27     1:42:44 Jim Murray              Gananoque      3/14  M45 - 49      450    5     77   18:02  2:25    4     33   53:28  33.7     2     19   31:15  4:21 
   28     1:42:51 Geoff Outerbridge       Ottawa         5/27  M35 - 39      339    4     34   15:49  2:07    11    44   54:16  33.2     7     34   32:48  4:34 
   29     1:43:34 Susanne Russell         Kingston       3/22  W20 - 24      466    2      9   13:36  1:49    5     64   55:40  32.3     3     53   34:19  4:46 
   30     1:43:54 Peter Goodacre          Dundas         3/19  M20 - 24      508    2     11   13:53  1:52    6     61   55:34  32.4     8     56   34:28  4:48 
   31     1:44:04 Ian Button              Ottawa         3/20  M25 - 29      406    4     46   16:24  2:12    2     12   51:11  35.2     8     93   36:29  5:04 
   32     1:44:04 Andrea McGill           Kingston       1/22  W30 - 34      514    3     13   14:07  1:53    1     49   54:38  33.0     3     72   35:21  4:55 
   33     1:44:10 Rick Manders            Oshawa         4/14  M45 - 49      495    6     94   18:36  2:29    5     36   53:34  33.6     4     25   32:01  4:27 
   34     1:44:13 Ray Stockermans         Amherstview    6/27  M35 - 39      366    18   154   20:23  2:44    3     14   51:12  35.2     6     33   32:38  4:32 
   35     1:44:20 Martin Guyon            Kingston       7/27  M35 - 39      556    10    85   18:21  2:27    8     40   54:05  33.3     4     24   31:55  4:26 
   36     1:44:22 Sylvie Dansereau        Oakville       1/15  W35 - 39      399    4     82   18:15  2:26    1     53   54:56  32.8     1     17   31:12  4:20 
   37     1:44:28 Jessica Kirkwood        Newmarket      1/4   Junior Women  582    1      3   12:05  1:37    1     63   55:36  32.4     1     97   36:48  5:07 
   38     1:44:43 Jeff McCartney          Toronto        4/31  M40 - 44      546    8     70   17:46  2:23    7     34   53:28  33.7     4     44   33:30  4:40 
   39     1:44:48 Cathy Bodnoff           Ottawa         1/10  W40 - 44      497    2     48   16:30  2:12    1     60   55:28  32.5     1     35   32:50  4:34 
   40     1:44:55 Chris Davidson          Kingston       5/30  M30 - 34      488    9     54   16:51  2:15    7     52   54:56  32.8     6     40   33:09  4:37 
   41     1:45:02 Rebecca Glennie         Toronto        2/22  W30 - 34      498    1      6   12:27  1:40    2     85   57:17  31.4     2     71   35:18  4:55 
   42 CLY 1:45:06 Richard Cadman          Battersea      5/31  M40 - 44      381    5     61   17:21  2:19    3     19   52:03  34.6     10    82   35:43  4:58 
   43     1:45:36 Stuart Jones            Kingston       8/27  M35 - 39      517    6     41   16:17  2:11    9     41   54:05  33.3     13    70   35:15  4:54 
   44     1:45:47 Eric Davies             Kingston       9/27  M35 - 39      515    7     45   16:24  2:12    12    71   56:06  32.1     9     41   33:18  4:38 
   45     1:46:07 William Cooper          Kingston       6/31  M40 - 44      477    4     44   16:23  2:11    9     51   54:49  32.8     7     66   34:56  4:52 
   46     1:46:08 Joel Chartrand          Kingston       4/19  M20 - 24      350    12   129   19:28  2:36    4     35   53:34  33.6     3     38   33:07  4:36 
   47     1:46:11 Brad Doyle              Bowmanville    6/30  M30 - 34      421    3     27   15:30  2:04    9     57   55:14  32.6     12    75   35:28  4:56 
   48     1:46:28 Michael Grant           Toronto        7/31  M40 - 44      331    18   159   20:39  2:46    6     30   53:15  33.8     2     30   32:35  4:32 
   49     1:46:44 Kerry Rocheleau         Ottawa         3/26  W25 - 29      309    8     56   17:01  2:17    3     80   56:51  31.7     2     36   32:53  4:34 
   50     1:47:03 James Chisholm          Toronto        7/30  M30 - 34      427    4     29   15:33  2:05    8     55   55:12  32.6     13    89   36:19  5:03 
   51     1:47:07 Danny Dillon            Ottawa        10/27  M35 - 39      322    17   139   19:42  2:38    6     21   52:32  34.3     11    65   34:54  4:51 
   52     1:47:10 Tom Bedford             Kingston       5/19  M20 - 24      327    11   126   19:24  2:36    3     31   53:16  33.8     9     57   34:32  4:48 
   53     1:47:40 Brad Smith              Ottawa         8/30  M30 - 34      452    8     53   16:48  2:15    11    77   56:34  31.8     8     54   34:19  4:46 
   54     1:48:05 Alastair Smith          Guelph         6/19  M20 - 24      342    6     72   17:53  2:24    8     73   56:09  32.1     5     50   34:04  4:44 
   55     1:48:16 Kevin McCormick         Toronto        4/20  M25 - 29      396    9    102   18:50  2:31    7     83   57:09  31.5     3     28   32:18  4:30 
   56     1:48:27 Murray Tough            Kingston      11/27  M35 - 39      578    11   114   19:08  2:33    10    43   54:13  33.2     12    69   35:07  4:53 
   57     1:48:39 Brant Carson            Waterloo       7/19  M20 - 24      492    8     79   18:07  2:25    13   146 1:00:34  29.7     1     10   29:59  4:10 
   58     1:48:49 Eric Lindenberg         Belleville     5/14  M45 - 49      479    13   201   22:18  2:59    3     32   53:24  33.7     6     39   33:09  4:37 
   59     1:49:07 Jamie Thompson          Toronto        8/31  M40 - 44      574    7     66   17:36  2:21    8     50   54:42  32.9     12   100   36:50  5:07 
   60     1:49:23 Heather Logan           Napanee        4/22  W20 - 24      580    8    145   19:54  2:40    3     47   54:31  33.0     5     68   34:59  4:52 
   61     1:49:46 Sheldon Cook            Inverary       9/30  M30 - 34      474    12   104   18:53  2:31    12    82   57:04  31.6     7     47   33:50  4:42 
   62     1:49:47 Feleisha Reiter         Sault Ste. M   4/26  W25 - 29      506    6     40   16:08  2:10    5    102   58:15  30.9     4     74   35:25  4:56 
   63     1:49:50 Peter Sims              Ottawa         1/14  M50 - 54      579    7    116   19:12  2:34    1     68   55:59  32.2     2     60   34:40  4:49 
   64     1:49:59 Tim O'Connor            Ottawa         5/20  M25 - 29      511    12   194   22:05  2:57    4     48   54:33  33.0     4     42   33:22  4:39 
   65     1:50:03 David McDonald          Kingston      12/27  M35 - 39      530    9     84   18:20  2:27    14    98   58:05  31.0     10    46   33:40  4:41 
   66     1:50:20 Brendan Miles           Kingston       8/19  M20 - 24      413    9     86   18:22  2:27    10    94   57:52  31.1     6     51   34:07  4:45 
   67     1:50:21 Agathe Nicholson        Kingston       2/10  W40 - 44      447    1     28   15:31  2:05    2    115   58:59  30.5     2     84   35:52  4:59 
   68     1:50:32 Terry O'Brien           Kingston       2/14  M50 - 54      502    1     21   14:58  2:00    4     79   56:49  31.7     6    134   38:45  5:23 
   69     1:50:44 Randall Kippen          Kingston       9/19  M20 - 24      584    3     49   16:31  2:13    5     54   54:57  32.8     14   147   39:17  5:28 
   70     1:50:44 Brian Farnell           RR 1 Inverar   6/14  M45 - 49      340    3     71   17:48  2:23    9    151 1:00:54  29.6     5     26   32:03  4:28 
   71     1:50:46 Ben Blakley             Belleville     3/5   Junior Men    397    1     19   14:43  1:58    3    101   58:09  31.0     4    118   37:55  5:16 
   72     1:50:47 Ed Brand                Kingston       3/14  M50 - 54      419    4     69   17:46  2:23    8    104   58:28  30.8     1     59   34:34  4:49 
   73     1:50:52 Alain Cyr               Brockville     9/31  M40 - 44      352    17   156   20:26  2:44    11    62   55:35  32.4     6     63   34:52  4:51 
   74     1:51:11 Dieter Baumgardt        Brampton       7/14  M45 - 49      302    8    106   18:54  2:32    6     46   54:25  33.1     9    117   37:54  5:16 
   75     1:51:29 John Gardner            Kingston      13/27  M35 - 39      522    13   121   19:19  2:35    7     39   54:02  33.3     17   122   38:09  5:18 
   76     1:51:56 Richard Henry           Kingston      10/31  M40 - 44      431    16   133   19:33  2:37    13    72   56:07  32.1     11    88   36:16  5:03 
   77     1:51:57 Melanie Brassard        Peterborough   5/26  W25 - 29      469    9     63   17:26  2:20    6    116   59:02  30.5     5     78   35:30  4:56 
   78     1:52:11 Jamie Hart              Courtice       6/20  M25 - 29      429    3     43   16:22  2:11    5     56   55:14  32.6     12   171   40:36  5:39 
   79     1:52:21 Mark Frederick          Kingston       8/14  M45 - 49      359    10   140   19:44  2:38    7     66   55:48  32.3     7     99   36:50  5:07 
   80     1:52:40 Scott Vowles            Kingston       7/20  M25 - 29      382    5     50   16:33  2:13    8     97   58:03  31.0     10   120   38:05  5:18 
   81     1:52:47 Chantal Mercier         Ottawa         6/26  W25 - 29      349    10    95   18:36  2:29    4     93   57:50  31.1     6     90   36:21  5:03 
   82     1:52:47 David Hirtle            Brockville    11/31  M40 - 44      315    19   165   20:55  2:48    5     22   52:32  34.3     20   151   39:21  5:28 
   83     1:52:52 Linda Martin            Kanata         2/15  W35 - 39      425    2     67   17:39  2:22    2     81   57:00  31.6     8    125   38:14  5:19 
   84     1:53:01 Michelle Cole           Kingston       3/22  W30 - 34      311    2     12   13:56  1:52    5    122   59:23  30.3     8    159   39:43  5:31 
   85     1:53:11 Dan Scott               Kingston      12/31  M40 - 44      562    14   130   19:29  2:36    19   129   59:46  30.1     5     49   33:57  4:43 
   86     1:53:17 Mark Taylor             Toronto       10/19  M20 - 24      351    4     57   17:03  2:17    15   166 1:01:41  29.2     10    58   34:34  4:48 
   87     1:53:22 Magi Scallion           Kingston       5/22  W20 - 24      445    7     92   18:34  2:29    8    140 1:00:20  29.8     4     55   34:28  4:48 
   88     1:53:22 Carol Desabrais         Halifax        3/15  W35 - 39      516    6     97   18:42  2:30    3     90   57:40  31.2     3    101   37:01  5:09 
   89     1:53:37 Barry Campbell          Rr#1 Verona   13/31  M40 - 44      529    9     87   18:23  2:28    12    69   56:02  32.1     19   145   39:12  5:27 
   90     1:53:42 Christopher Rubeck      Geneseo       10/30  M30 - 34      518    13   119   19:17  2:35    5     27   52:50  34.1     23   187   41:36  5:47 
   91     1:53:44 James Carpenter         Orleans (Ott   4/14  M50 - 54      480    9    174   21:12  2:50    3     75   56:22  31.9     4     87   36:10  5:02 
   92     1:53:47 David Thomspon          Orleans       14/31  M40 - 44      433    6     62   17:25  2:20    10    58   55:23  32.5     25   177   41:00  5:42 
   93     1:53:52 Peter Hook              Kingston      11/19  M20 - 24      564    13   134   19:35  2:37    7     65   55:48  32.3     12   130   38:30  5:21 
   94     1:53:55 Susan Hall              Halifax        4/15  W35 - 39      471    1     26   15:26  2:04    8    154 1:01:00  29.5     5    108   37:30  5:13 
   95     1:53:58 Chad Clark              Greely        11/30  M30 - 34      552    7     47   16:28  2:12    17   128   59:44  30.1     16   116   37:47  5:15 
   96     1:53:58 Lesley Cassidy          Ottawa         4/22  W30 - 34      456    7    101   18:49  2:31    3     89   57:38  31.2     6    109   37:32  5:13 
   97     1:54:02 David Mark              Kingston      15/31  M40 - 44      478    21   171   21:09  2:50    15    96   57:56  31.1     8     67   34:58  4:52 
   98     1:54:09 Joanne Tognarelli       Ottawa         7/26  W25 - 29      513    1     15   14:12  1:54    10   130   59:56  30.0     12   164   40:02  5:34 
   99     1:54:14 Sarah Chapelsky         Ottawa         6/22  W20 - 24      523    11   161   20:44  2:46    4     59   55:24  32.5     10   121   38:06  5:18 
  100     1:54:31 Andrew Fraser           Ottawa        14/27  M35 - 39      454    8     78   18:05  2:25    16   126   59:39  30.2     14    98   36:48  5:07 
  101     1:54:42 Colin Zammit            Kingston       8/20  M25 - 29      468    8     96   18:42  2:30    13   156 1:01:15  29.4     5     61   34:46  4:50 
  102     1:54:54 Graham Tory             Ottawa        12/30  M30 - 34      424    19   153   20:23  2:44    23   195 1:03:32  28.3     4     16   31:00  4:19 
  103     1:54:55 Daniel Liadsky          Toronto       12/19  M20 - 24      534    14   160   20:44  2:46    11   103   58:16  30.9     11    85   35:56  5:00 
  104     1:54:58 Alison Louise Fraser    Kingston       8/26  W25 - 29      308    7     52   16:45  2:14    8    119   59:14  30.4     9    139   38:59  5:25 
  105     1:55:00 Steve Wilkie            Richmond Hil   5/14  M50 - 54      528    5     99   18:43  2:30    5     88   57:34  31.3     5    133   38:44  5:23 
  106     1:55:19 Kevin Penny             Ottawa         9/14  M45 - 49      380    1     24   15:13  2:02    10   175 1:01:57  29.1     10   124   38:10  5:18 
  107     1:55:26 Brad MacNeil            Gananoque      4/5   Junior Men    539    4    172   21:10  2:50    4    113   58:49  30.6     3     76   35:29  4:56 
  108     1:55:31 Julie Chene             Ottawa         9/26  W25 - 29      487    4     38   15:59  2:08    12   172 1:01:50  29.1     8    113   37:42  5:15 
  109     1:55:39 Wendy Flecker           Kingston       3/10  W40 - 44      451    3     73   17:54  2:24    3    145 1:00:29  29.8     3    105   37:17  5:11 
  110     1:55:57 Carol Ravnaas           Brockville     5/15  W35 - 39      348    3     80   18:09  2:26    4    106   58:30  30.8     10   148   39:18  5:28 
  111     1:56:05 David Andrew            Kingston       6/14  M50 - 54      463    11   213   22:41  3:02    6     92   57:50  31.1     3     80   35:35  4:57 
  112     1:56:11 Robert Matz             Ottawa        13/30  M30 - 34      345    11    89   18:29  2:28    20   157 1:01:16  29.4     14    91   36:27  5:04 
  113     1:56:11 Stephen Drummond        Kingston      15/27  M35 - 39      449    12   120   19:19  2:35    13    86   57:17  31.4     21   157   39:36  5:30 
  114     1:56:33 Joan Tranmer            Kingston       1/6   W45 - 49      438    1     75   17:57  2:24    1     87   57:19  31.4     1    181   41:18  5:45 
  115     1:56:41 Jim Elyot               Kingston      16/31  M40 - 44      501    22   175   21:14  2:50    14    76   56:22  31.9     18   140   39:06  5:26 
  116     1:56:58 Kevin Alexander         Oshawa        17/31  M40 - 44      467    23   181   21:22  2:51    16   105   58:30  30.8     13   103   37:07  5:10 
  117 CLY 1:57:11 Robert Lukshis          Stittsville   18/31  M40 - 44      303    13   128   19:27  2:36    18   112   58:46  30.6     17   138   38:58  5:25 
  118     1:57:13 Michael Campbell        Bethesda      14/30  M30 - 34      318    22   198   22:13  2:58    15   124   59:38  30.2     11    73   35:24  4:55 
  119 CLY 1:57:26 Andrew Jones            Kanata         9/20  M25 - 29      544    6     51   16:36  2:13    10   107   58:34  30.7     14   193   42:17  5:53 
  120     1:57:34 Kathy Hawthorne         Shelburne      7/22  W20 - 24      314    5     81   18:11  2:26    6    114   58:54  30.6     15   170   40:30  5:38 
  121     1:57:51 Bob Albert              Ottawa        19/31  M40 - 44      426    15   132   19:32  2:37    17   108   58:34  30.7     23   160   39:45  5:32 
  122     1:57:53 Wilma Pettingill        Kingston       6/15  W35 - 39      520    7    117   19:12  2:34    7    153 1:01:00  29.5     6    112   37:42  5:15 
  123 CLY 1:58:02 Christopher Doucet      Kingston      10/20  M25 - 29      434    10   151   20:10  2:42    9    100   58:06  31.0     11   161   39:47  5:32 
  124     1:58:06 Sandford Stock          Ajax          20/31  M40 - 44      504    11   108   19:02  2:33    21   147 1:00:36  29.7     15   129   38:29  5:21 
  125     1:58:08 Sara Montgomery         Bath           5/22  W30 - 34      388    13   155   20:24  2:44    7    138 1:00:13  29.9     7    110   37:33  5:13 
  126     1:58:16 Chris Nash              Kingston      16/27  M35 - 39      505    24   236   23:44  3:10    22   174 1:01:54  29.1     5     32   32:38  4:32 
  127     1:58:19 Stacey Berdan           Tweed          6/22  W30 - 34      363    10   118   19:13  2:34    10   170 1:01:48  29.1     5    106   37:20  5:11 
  128     1:58:24 Laurie Strano           Ottawa        10/26  W25 - 29      550    5     39   16:01  2:09    13   187 1:03:00  28.6     11   153   39:24  5:29 
  129     1:58:26 Kelly Bennett           Uxbridge       7/15  W35 - 39      453    13   205   22:27  3:00    5    139 1:00:16  29.9     2     83   35:44  4:58 
  130     1:58:47 Jim McMahon             Belleville    15/30  M30 - 34      507    21   197   22:09  2:58    22   171 1:01:49  29.1     9     62   34:50  4:51 
  131     1:58:50 Charles Walker          Toronto       11/20  M25 - 29      460    13   207   22:30  3:00    14   161 1:01:28  29.3     6     64   34:53  4:51 
  132     1:58:56 Andrew Smillie          Kingston      21/31  M40 - 44      459    10    93   18:35  2:29    22   150 1:00:47  29.6     22   156   39:35  5:30 
  133     1:58:57 Allan Merpaw            RR 3 Brockvi   7/14  M50 - 54      493    2     58   17:04  2:17    11   141 1:00:26  29.8     9    184   41:28  5:46 
  134     1:59:18 Murray Legge            Richmond Hil   8/14  M50 - 54      494    8    148   20:02  2:41    10   136 1:00:11  29.9     7    141   39:06  5:26 
  135     1:59:31 Kyla Madden             Kingston      11/26  W25 - 29      503    11   110   19:05  2:33    16   198 1:03:58  28.1     7     92   36:29  5:04 
  136     1:59:34 David Kloppenburg       Arva          17/27  M35 - 39      410    14   123   19:23  2:36    23   188 1:03:07  28.5     15   102   37:04  5:09 
  137     1:59:37 Steve Sills             Komoka        18/27  M35 - 39      423    15   131   19:31  2:37    19   152 1:00:58  29.5     19   142   39:09  5:27 
  138     1:59:45 David Harkey            Oakville      16/30  M30 - 34      343    14   125   19:24  2:36    18   144 1:00:26  29.8     20   162   39:55  5:33 
  139     1:59:47 Jennifer Jackson        Kingston       8/22  W20 - 24      329    14   184   21:32  2:53    10   178 1:02:18  28.9     7     86   35:57  5:00 
  140     1:59:48 Kristian Medri          North York    13/19  M20 - 24      540    15   187   21:47  2:55    12   110   58:42  30.7     15   149   39:20  5:28 
  141     1:59:52 Rolf Lund               Kingston      19/27  M35 - 39      572    22   206   22:28  3:00    15   117   59:03  30.5     18   126   38:21  5:20 
  142     1:59:59 Colin Stokes            La Peche      17/30  M30 - 34      571    17   137   19:42  2:38    14   120   59:14  30.4     22   178   41:04  5:43 
  143     2:00:11 Colleen Cameron         Kingston       9/22  W20 - 24      377    16   204   22:21  2:59    7    133 1:00:06  30.0     9    114   37:44  5:15 
  144     2:00:31 Catherine Adams         Toronto        8/15  W35 - 39      332    10   169   21:05  2:49    9    158 1:01:18  29.4     7    123   38:09  5:18 
  145     2:00:44 Nathalie Charette       Orleans        7/22  W30 - 34      337    14   180   21:20  2:51    11   219 1:05:33  27.5     1     48   33:52  4:43 
  146     2:00:45 Sheila Gardner          Kingston       8/22  W30 - 34      519    6     98   18:43  2:30    4     91   57:47  31.2     15   217   44:16  6:09 
  147     2:00:53 Mike Lucas              Kingston      20/27  M35 - 39      306    16   135   19:36  2:37    18   134 1:00:08  29.9     23   179   41:10  5:44 
  148     2:01:06 Roth Wehrell            Kingston      14/19  M20 - 24      465    17   251   25:23  3:23    14   162 1:01:30  29.3     7     52   34:14  4:46 
  149     2:01:16 Amanda Bumstead         Kingston       9/22  W30 - 34      407    18   238   23:54  3:12    9    149 1:00:44  29.6     4     94   36:39  5:06 
  150     2:01:25 Yves Decoste            Lyn           18/30  M30 - 34      565    16   136   19:39  2:38    16   125   59:38  30.2     24   192   42:09  5:52 
  151     2:01:33 John Parkinson          Kingston      21/27  M35 - 39      330    19   162   20:49  2:47    20   159 1:01:22  29.3     20   152   39:23  5:29 
  152     2:01:41 Peter Mammone           Brampton      22/31  M40 - 44      338    27   195   22:05  2:57    20   135 1:00:09  29.9     21   154   39:27  5:29 
  153     2:01:47 Stephanie Schubert      Kingston      10/22  W20 - 24      369    10   158   20:39  2:46    11   182 1:02:32  28.8     12   131   38:36  5:22 
  154     2:01:58 Carly Travers           Kingston      11/22  W20 - 24      573    13   166   20:57  2:48    15   217 1:05:27  27.5     6     81   35:36  4:57 
  155     2:01:59 Timon Garreau           Ashton        12/20  M25 - 29      527    17   247   24:50  3:19    15   165 1:01:39  29.2     7     79   35:30  4:56 
  156     2:02:03 Peter Wong              Toronto       13/20  M25 - 29      401    18   258   26:01  3:29    11   121   59:23  30.3     9     96   36:40  5:06 
  157     2:02:12 Brett Anderson          Port Hope     23/31  M40 - 44      509    20   167   20:58  2:48    25   179 1:02:19  28.9     16   136   38:55  5:25 
  158     2:02:26 Cathy Campanaro         Kingston       9/15  W35 - 39      390    14   230   23:33  3:09    11   169 1:01:46  29.1     4    104   37:08  5:10 
  159     2:02:36 Andrew Leung            Kingston      14/20  M25 - 29      418    15   224   23:06  3:05    6     74   56:17  32.0     15   206   43:15  6:01 
  160     2:02:45 Trevor Wade             Kingston      15/19  M20 - 24      441    18   267   26:47  3:35    9     78   56:48  31.7     13   143   39:12  5:27 
  161     2:02:50 Genevieve Butler        Trenton       10/15  W35 - 39      458    5     83   18:17  2:27    12   215 1:05:18  27.6     9    146   39:17  5:28 
  162     2:02:52 Sara Ryan               Kingston      10/22  W30 - 34      370    12   142   19:46  2:39    6    131 1:00:00  30.0     14   205   43:06  6:00 
  163     2:02:57 Krista MacKinnon        Kingston      12/26  W25 - 29      561    14   124   19:24  2:36    14   194 1:03:29  28.4     13   165   40:04  5:34 
  164     2:03:08 Kealy Dedman            Burlington    11/22  W30 - 34      549    11   141   19:45  2:38    8    143 1:00:26  29.8     13   203   42:58  5:59 
  165     2:03:13 Gord Hunter             Nepean         1/4   M55 - 59      365    1    144   19:52  2:39    2    111   58:46  30.6     2    221   44:36  6:12 
  166     2:03:14 Richard Cameron         Kingston      10/14  M45 - 49      391    11   176   21:15  2:50    12   201 1:04:12  28.0     8    115   37:47  5:15 
  167 CLY 2:03:14 Jay C, James            Kingston      19/30  M30 - 34      436    26   245   24:24  3:16    6     38   53:53  33.4     26   224   44:58  6:15 
  168     2:03:28 Terry Rickan            Ottawa        15/20  M25 - 29      483    7     91   18:33  2:29    12   123   59:29  30.3     18   231   45:27  6:19 
  169     2:03:30 Bev Whiten              Napanee       11/15  W35 - 39      307    12   186   21:40  2:54    10   163 1:01:33  29.3     11   168   40:18  5:36 
  170     2:03:37 Tom Bush                Kingston      20/30  M30 - 34      568    24   235   23:39  3:10    21   164 1:01:35  29.2     17   128   38:25  5:21 
  171     2:03:41 Martha Collins          Kingston       4/10  W40 - 44      525    4    147   19:58  2:40    5    185 1:02:56  28.6     4    176   40:48  5:40 
  172 CLY 2:04:06 Tara Rawluk             Stirling      13/26  W25 - 29      510    18   196   22:07  2:57    7    118   59:13  30.4     17   201   42:47  5:57 
  173     2:04:22 Terry Hodge             Brockville    22/27  M35 - 39      400    20   188   21:52  2:55    17   132 1:00:03  30.0     25   196   42:28  5:54 
  174 CLY 2:04:33 Carole-Anne Chiasson    Markham       14/26  W25 - 29      560    21   218   22:45  3:02    11   137 1:00:11  29.9     15   188   41:38  5:47 
  175     2:04:51 Don Bayne               Wolfe Island   2/4   M55 - 59      587    2    209   22:35  3:01    1     84   57:14  31.5     3    228   45:03  6:16 
  176     2:04:57 Victoria Creighton      Toronto       12/22  W20 - 24      551    6     90   18:31  2:29    14   211 1:04:59  27.7     17   183   41:27  5:46 
  177     2:04:59 Marc Young              Kingston      23/27  M35 - 39      542    23   215   22:42  3:02    24   202 1:04:18  28.0     16   119   37:59  5:17 
  178     2:05:42 Martha Lloyd            Belleville     5/10  W40 - 44      428    8    208   22:32  3:01    4    155 1:01:12  29.4     6    190   41:59  5:50 
  179     2:06:05 Kerry Phillips          Belleville    11/14  M45 - 49      411    12   191   22:01  2:57    8    148 1:00:40  29.7     12   209   43:26  6:02 
  180     2:06:06 Margaret Li             Kingston      13/22  W20 - 24      372    17   214   22:42  3:02    16   227 1:06:46  27.0     8     95   36:39  5:06 
  181     2:06:06 Johanna Martin          Guelph        14/22  W20 - 24      341    19   252   25:35  3:25    9    177 1:02:10  29.0     11   127   38:22  5:20 
  182     2:06:11 Justin Verity           Aurora        16/19  M20 - 24      362    7     76   18:00  2:24    18   229 1:06:53  26.9     16   182   41:19  5:45 
  183     2:06:15 Francisco Diaz Sr       Ottawa        12/14  M45 - 49      543    4     74   17:56  2:24    13   223 1:05:57  27.3     11   195   42:23  5:54 
  184     2:06:25 John Collins            Oshawa         9/14  M50 - 54      563    12   240   24:10  3:14    9    109   58:36  30.7     10   211   43:40  6:04 
  185     2:06:43 Carrie McCallum         Kanata        12/15  W35 - 39      408    11   170   21:08  2:50    6    142 1:00:26  29.8     13   229   45:10  6:17 
  186     2:06:48 Jonathan Wyatt          Brockville    10/14  M50 - 54      583    6    115   19:09  2:34    13   241 1:08:20  26.3     8    150   39:20  5:28 
  187     2:07:14 Brian Beck              Kingston      24/27  M35 - 39      328    25   250   25:13  3:22    21   173 1:01:53  29.1     22   166   40:09  5:35 
  188     2:07:36 Wendy Pentland          Kingston       2/6   W45 - 49      358    2    149   20:05  2:41    4    218 1:05:30  27.5     2    191   42:01  5:51 
  189     2:07:41 April MacMurdo          Oshawa         3/6   W45 - 49      567    3    173   21:10  2:50    2    180 1:02:22  28.9     3    214   44:10  6:08 
  190     2:07:49 Louise Gariepy          Ottawa        15/22  W20 - 24      457    18   229   23:33  3:09    13   205 1:04:39  27.8     14   158   39:39  5:31 
  191     2:07:58 Christine Morton        Kingston      16/22  W20 - 24      409    15   185   21:35  2:53    12   197 1:03:47  28.2     19   200   42:37  5:56 
  192     2:07:59 Greg Kerr               Tweed         11/14  M50 - 54      364    10   202   22:18  2:59    12   167 1:01:43  29.2     11   213   43:59  6:07 
  193 CLY 2:08:07 Marc Baron              Huntsville    17/19  M20 - 24      398    10   100   18:48  2:31    17   203 1:04:20  28.0     19   226   45:00  6:15 
  194     2:08:28 Catharine Johnston      Toronto        4/6   W45 - 49      334    4    182   21:25  2:52    3    181 1:02:28  28.8     4    220   44:35  6:12 
  195     2:08:34 Peter Brown             Kingston      12/14  M50 - 54      432    13   241   24:11  3:14    2     70   56:05  32.1     13   249   48:19  6:43 
  196     2:08:36 Frank Kaiser            Kingston      25/27  M35 - 39      444    21   200   22:14  2:58    27   213 1:05:06  27.7     24   180   41:17  5:44 
  197     2:08:37 Gillian Matthews        Toronto       15/26  W25 - 29      548    19   203   22:20  2:59    22   233 1:07:06  26.8     10   144   39:12  5:27 
  198     2:08:44 Austin MacMurdo         Oshawa        13/14  M50 - 54      570    3     65   17:35  2:21    7     95   57:52  31.1     14   267   53:18  7:25 
  199     2:08:49 Suzanne Sinclair        Kingston      16/26  W25 - 29      389    16   178   21:18  2:51    17   204 1:04:28  27.9     18   204   43:04  5:59 
  200     2:08:49 Donnelly Dwayne         Kingston      24/31  M40 - 44      437    25   190   21:59  2:56    26   183 1:02:36  28.8     27   215   44:15  6:09 
  201     2:08:56 Stephen Boston          Kingston      25/31  M40 - 44      545    29   242   24:12  3:14    28   199 1:04:06  28.1     24   172   40:39  5:39 
  202 CLY 2:08:59 Gordon MacDougall       Kingston      26/31  M40 - 44      323    12   111   19:06  2:33    23   160 1:01:22  29.3     29   251   48:31  6:45 
  203     2:09:00 Geoff Flynn             Bath           1/5   M60 & Over    490    1    105   18:53  2:32    1    192 1:03:23  28.4     4    242   46:46  6:30 
  204     2:09:01 Don Cowin               Bath          13/14  M45 - 49      316    7    103   18:51  2:31    11   191 1:03:16  28.5     13   244   46:55  6:31 
  205     2:09:12 Monica Doherty          Stratford     17/26  W25 - 29      481    15   138   19:42  2:38    20   226 1:06:07  27.2     19   207   43:24  6:02 
  206     2:09:14 Kathleen Campbell       Bethesda      12/22  W30 - 34      319    9    109   19:02  2:33    14   237 1:07:36  26.6     12   199   42:37  5:56 
  207     2:09:26 Ellen Maitland          Toronto       13/22  W30 - 34      485    8    107   18:59  2:32    18   251 1:09:42  25.8     11   174   40:46  5:40 
  208 CLY 2:09:32 Mark Atkins             Kingston      16/20  M25 - 29      375    16   227   23:11  3:06    18   206 1:04:43  27.8     13   189   41:39  5:48 
  209     2:09:33 Jennifer Minor          Kingston      18/26  W25 - 29      464    17   179   21:18  2:51    23   238 1:07:55  26.5     14   169   40:21  5:37 
  210     2:09:54 Richard Sunderland      Kingston       3/4   M55 - 59      554    3    237   23:48  3:11    3    235 1:07:15  26.8     1    135   38:52  5:24 
  211     2:10:14 Nicole Tory             Toronto       19/26  W25 - 29      415    26   275   27:59  3:44    9    127   59:41  30.2     16   198   42:35  5:55 
  212     2:10:14 Eric Schjerning         Etobicoke     27/31  M40 - 44      576    31   274   27:57  3:44    29   210 1:04:58  27.7     14   107   37:20  5:11 
  213     2:10:22 Heather Atkinson        Nepean         6/10  W40 - 44      317    7    199   22:14  2:58    6    193 1:03:24  28.4     8    222   44:45  6:13 
  214     2:10:28 Erin Armitage           Kingston      17/22  W20 - 24      526    12   164   20:54  2:48    17   247 1:08:48  26.2     16   175   40:47  5:40 
  215     2:10:52 Dave Ward               Owen Sound     2/5   M60 & Over    376    2    163   20:51  2:47    2    212 1:05:04  27.7     1    225   44:58  6:15 
  216     2:11:15 Lawrence Rulison        Baltimore     21/30  M30 - 34      313    20   157   20:31  2:45    30   259 1:11:17  25.3     19   155   39:28  5:29 
  217     2:11:21 Leo Sammon              Lowville      28/31  M40 - 44      538    26   192   22:03  2:57    24   168 1:01:46  29.1     28   248   47:33  6:37 
  218     2:12:08 Adriana Rossi           Ottawa        14/22  W30 - 34      446    5     88   18:28  2:28    15   239 1:07:56  26.5     16   236   45:45  6:22 
  219     2:12:27 Melissa Rathier         Kingston      20/26  W25 - 29      591    12   113   19:07  2:33    15   196 1:03:35  28.3     22   257   49:46  6:55 
  220     2:12:28 Sanaz Ghoreshy          Kingston      21/26  W25 - 29      367    13   122   19:21  2:35    21   228 1:06:50  26.9     20   239   46:18  6:26 
  221     2:12:41 Julia Nicholson         Peterborough  18/22  W20 - 24      443    9    146   19:57  2:40    19   256 1:10:27  25.6     18   194   42:18  5:53 
  222     2:13:25 Josey Steel             Inverary      15/22  W30 - 34      473    17   219   22:47  3:03    19   252 1:09:56  25.7     10   173   40:43  5:40 
  223     2:13:43 Janet Jones-Baumgardt   Brampton      13/15  W35 - 39      304    9    168   21:04  2:49    13   222 1:05:51  27.3     15   243   46:48  6:30 
  224     2:13:49 John Jessome            Kingston      22/30  M30 - 34      500    30   273   27:41  3:42    28   244 1:08:28  26.3     15   111   37:41  5:14 
  225     2:13:57 Karen Heywood           Toronto       14/15  W35 - 39      404    8    150   20:07  2:41    15   250 1:09:21  26.0     12   218   44:30  6:11 
  226     2:13:59 Kristian Ewen           Ottawa        17/20  M25 - 29      305    19   268   26:51  3:35    16   176 1:02:08  29.0     17   227   45:01  6:16 
  227     2:14:17 Glenn Delaney           Kingston      23/30  M30 - 34      435    29   263   26:33  3:33    26   236 1:07:34  26.6     21   167   40:11  5:35 
  228     2:14:35 Chris Papi              Harrowsmith   24/30  M30 - 34      470    25   243   24:14  3:14    31   264 1:11:46  25.1     18   132   38:36  5:22 
  229     2:14:36 Gina Gushue             Kingston       7/10  W40 - 44      320    6    193   22:04  2:57    7    230 1:06:54  26.9     9    234   45:40  6:21 
  230     2:14:38 Melanie Kamphuis        Stratford     16/22  W30 - 34      361    20   259   26:14  3:30    16   243 1:08:27  26.3     9    163   39:58  5:33 
  231     2:15:10 Patti McCauley          Kingston       8/10  W40 - 44      462    10   264   26:42  3:34    8    232 1:06:56  26.9     5    186   41:33  5:47 
  232 CLY 2:15:34 Mike Porter             Kingston      26/27  M35 - 39      360    27   262   26:31  3:33    25   208 1:04:49  27.8     26   216   44:16  6:09 
  233     2:15:40 Edith Day               Kingston      19/22  W20 - 24      357    22   272   27:26  3:40    18   249 1:09:19  26.0     13   137   38:56  5:25 
  234     2:15:52 Kristi Dean             Ottawa        17/22  W30 - 34      392    4     68   17:40  2:22    12   220 1:05:40  27.4     22   265   52:33  7:18 
  235     2:15:59 Bruce Patry             Kingston      25/30  M30 - 34      310    15   127   19:26  2:36    24   200 1:04:07  28.1     28   264   52:26  7:17 
  236     2:16:28 David Shum              Toronto       26/30  M30 - 34      588    27   246   24:41  3:18    27   242 1:08:23  26.3     25   208   43:24  6:02 
  237     2:16:45 Kathryn Handford        Toronto        9/10  W40 - 44      476    9    216   22:43  3:02    9    262 1:11:28  25.2     7    197   42:35  5:55 
  238 CLY 2:17:29 Christopher Munro       Courtice      18/20  M25 - 29      312    14   222   23:00  3:04    17   186 1:02:56  28.6     20   262   51:33  7:10 
  239     2:17:55 David Barbic            Kingston      18/19  M20 - 24      403    16   223   23:02  3:05    19   270 1:13:24  24.5     17   185   41:30  5:46 
  240 CLY 2:18:10 Stephanie Hawkins       Kingston      22/26  W25 - 29      448    23   234   23:38  3:10    19   224 1:06:02  27.3     21   250   48:30  6:45 
  241     2:18:11 Chris Hornsby           Toronto       29/31  M40 - 44      581    28   220   22:55  3:04    30   261 1:11:27  25.2     26   212   43:50  6:06 
  242     2:18:27 Gillian Kelly           Kingston       1/4   W50 - 54      442    1    225   23:08  3:05    2    240 1:08:13  26.4     3    247   47:06  6:33 
  243     2:18:37 Jamie Neggers           Kingston       2/4   Junior Women  387    4    260   26:17  3:31    2    216 1:05:25  27.5     3    245   46:56  6:32 
  244     2:18:48 Christy Kidman          Oshawa        18/22  W30 - 34      412    15   189   21:57  2:56    13   234 1:07:12  26.8     20   256   49:40  6:54 
  245     2:18:48 Jonthan Bennett         Uxbridge      30/31  M40 - 44      461    24   183   21:30  2:52    27   184 1:02:46  28.7     31   270   54:33  7:35 
  246     2:19:31 Virginia Stinson        Kingston       2/4   W50 - 54      414    3    231   23:33  3:09    3    254 1:10:21  25.6     1    233   45:38  6:21 
  247     2:19:46 Pennie Carr-Harris      Kingston       3/4   W50 - 54      335    4    248   25:07  3:21    1    221 1:05:46  27.4     4    254   48:54  6:48 
  248     2:19:55 Theresa Sammon          Lowville      15/15  W35 - 39      536    15   276   28:14  3:46    14   225 1:06:07  27.2     14   232   45:36  6:20 
  249     2:20:06 Miriam Lyon             Kingston       3/4   Junior Women  385    2    212   22:40  3:02    4    272 1:14:33  24.1     2    202   42:53  5:58 
  250 CLY 2:20:07 Stefan Baral            Kingston      19/20  M25 - 29      422    11   177   21:16  2:51    19   253 1:10:06  25.7     19   252   48:46  6:47 
  251     2:20:12 Stephanie Waterman      Pasadena      20/22  W20 - 24      374    20   255   25:45  3:26    20   257 1:10:49  25.4     20   210   43:38  6:04 
  252     2:20:13 Wayne Gollogly          Gananoque      3/5   M60 & Over    356    3    254   25:38  3:26    3    246 1:08:38  26.2     3    238   45:58  6:23 
  253     2:20:22 Susan Radford           Perth Road     5/6   W45 - 49      541    5    217   22:44  3:02    5    258 1:11:00  25.4     5    241   46:39  6:29 
  254     2:20:31 Donna O'Connor          Kingston       4/4   W50 - 54      368    2    228   23:28  3:08    4    260 1:11:20  25.2     2    235   45:44  6:21 
  255     2:20:33 Andrew Pilliar          Toronto       19/19  M20 - 24      547    19   279   32:25  4:20    16   190 1:03:13  28.5     18   223   44:56  6:15 
  256     2:20:38 Bessie Sullivan         Kingston      19/22  W30 - 34      354    16   211   22:39  3:02    17   248 1:09:02  26.1     19   255   48:57  6:48 
  257     2:20:40 Siobhan Coady           Kingston      20/22  W30 - 34      402    19   244   24:20  3:15    20   255 1:10:26  25.6     17   237   45:55  6:23 
  258     2:22:32 Luis Alvarado           Toronto       27/30  M30 - 34      496    28   249   25:12  3:22    29   245 1:08:32  26.3     27   253   48:49  6:47 
  259     2:22:38 Geoffrey Rousseau       Kingston       5/5   Junior Men    440    5    269   27:06  3:37    5    189 1:03:10  28.5     5    263   52:22  7:17 
  260     2:22:42 Rob Renaud              Yarker        14/14  M45 - 49      384    14   221   23:00  3:04    14   231 1:06:56  26.9     14   266   52:47  7:20 
  261 CLY 2:23:04 Sarah Fortin            Toronto       23/26  W25 - 29      336    20   210   22:36  3:01    18   214 1:05:17  27.6     24   272   55:12  7:40 
  262     2:25:16 Joe Hsu                 Toronto       20/20  M25 - 29      586    20   271   27:20  3:39    20   269 1:13:24  24.5     16   219   44:33  6:12 
  263     2:25:53 Dominique Vienneau      Gananoque      4/4   Junior Women  512    3    226   23:10  3:06    3    267 1:12:55  24.7     4    258   49:50  6:56 
  264     2:28:49 Tony Barton             Bath          28/30  M30 - 34      386    23   232   23:36  3:09    25   207 1:04:44  27.8     29   277 1:00:31  8:25 
  265 CLY 2:29:04 Jeff Toogood            Newmarket     27/27  M35 - 39      455    26   257   25:50  3:27    26   209 1:04:56  27.7     27   275   58:19  8:06 
  266     2:29:41 Jennifer Whitecross     Kingston      21/22  W20 - 24      405    4     59   17:08  2:17    22   276 1:18:52  22.8     21   268   53:42  7:28 
  267     2:29:48 Garth Sweetnam          Schreiber     31/31  M40 - 44      333    30   256   25:45  3:26    31   268 1:13:05  24.6     30   260   50:59  7:05 
  268     2:30:58 Grace Vigneron          Ottawa        24/26  W25 - 29      393    22   233   23:36  3:09    24   265 1:12:05  25.0     25   273   55:17  7:41 
  269     2:30:58 Cindy Knight-Vigneron   Ottawa        21/22  W30 - 34      379    21   270   27:17  3:39    21   266 1:12:12  24.9     21   261   51:30  7:10 
  270     2:31:08 Ted Belbeck             Ingersoll     14/14  M50 - 54      325    14   277   30:00  4:00    14   271 1:14:03  24.3     12   246   47:06  6:33 
  271     2:32:38 Janinne Rousseau        Kingston      22/22  W20 - 24      439    21   261   26:19  3:31    21   263 1:11:42  25.1     22   271   54:38  7:36 
  272     2:36:45 Jeanette Dietrich       Kingston      22/22  W30 - 34      371    22   278   31:11  4:10    22   277 1:19:14  22.7     18   240   46:21  6:27 
  273     2:38:01 Peter Vangestel         Erinsville     4/5   M60 & Over    577    4    280   32:54  4:24    5    278 1:19:50  22.6     2    230   45:18  6:18 
  274     2:38:45 Karen Jutzi             North York    25/26  W25 - 29      416    25   266   26:46  3:35    26   279 1:21:39  22.0     23   259   50:21  7:00 
  275 CLY 2:39:01 Marie V.J. Demers       Ottawa        26/26  W25 - 29      575    24   239   24:07  3:13    25   275 1:18:38  22.9     26   274   56:17  7:49 
  276     2:42:47 Joan Hooper             Kingston       6/6   W45 - 49      394    6    253   25:37  3:25    6    274 1:18:00  23.1     6    276   59:11  8:14 
  277     2:59:02 Brian Jewitt            Cantley        5/5   M60 & Over    535    5    281   33:11  4:26    4    273 1:14:57  24.0     5    278 1:10:55  9:51 
  278     3:17:57 Ruth Crafts             Kingston       1/1   W55 - 59      395    1    282   46:44  6:14    1    282 1:36:55  18.6     1    269   54:19  7:33 
  279             James Clark             Ottawa        29/30  M30 - 34      533    6     42   16:21  2:11    10    67   55:56  32.2                            
  280             Andres Dugi             East Greenbu  30/30  M30 - 34      592    18   143   19:50  2:39    13    99   58:05  31.0                            
  281             Lynne Underhill         Perth         10/10  W40 - 44      346    5    152   20:19  2:43    10   281 1:36:51  18.6                            
  282             Glenn Miller            Markham        4/4   M55 - 59      555    4    265   26:45  3:34    4    280 1:32:06  19.5